默认 日期 大小 文件数 浏览量 最新下载 xml
planet磁力链接相关资源由用户搜索指令自动获取,结果来源于网络,本站不存储任何资料,亦不承担任何责任,请于24小时内删除,搜索到26020个磁力,显示前4000条数据,用时5ms。
    {"setup.exe": 984511, "setup-1.bin": 1707212864, "setup-2.bin": 1708200000, "setup-3.bin": 1708200000, "setup-4.bin": 1708200000, "setup-5.bin": 1708200000, "setup-6.bin": 1678163158}
创建时间: 2018-11-09 22:19:18 大小:9.52 GB 文件数量:7 热度:6 最近下载:2023-04-13 03:50:05
    {"INFO.txt": 2533, "p m 4-5.jpg": 201386, "rd_login.jpg": 79357, "ZAPRASZAM myca1125 -DEVIL-TORRENTS.PL..html": 576, "4 Planeta Malp Podboj planety malp (1972).avi": 1464956928, "5 Planeta Malp Bitwa o planete malp (1973).avi": 729266244, "DEVIL-TORRENTS ...
创建时间: 2018-11-09 22:43:02 大小:2.04 GB 文件数量:7 热度:10 最近下载:2024-12-01 06:05:01
    ... ": 47842527, "Fear Of A Blank Planet.cue": 987, "01 - Fear Of ... A Blank Planet.flac": 54412116, "Porcupine Tree - Fear ... Of A Blank Planet.log": 4043, "Porcupine Tree - Fear ...
创建时间: 2018-11-09 22:51:23 大小:406.27 MB 文件数量:26 热度:26 最近下载:2025-07-08 04:16:01
    {"RARBG.txt": 31, "War.for.the.Planet.of.the.Apes.2017.1080p.AMZN.WEB-DL.DDP5.1.H.264-NTb.mkv": 6508727790}
创建时间: 2018-11-09 23:20:44 大小:6.06 GB 文件数量:2 热度:4 最近下载:2023-04-13 04:10:05
    {"swe6-pgb3.mp4": 1465253047}
创建时间: 2018-11-09 23:28:38 大小:1.36 GB 文件数量:1 热度:28 最近下载:2025-08-22 02:26:01
    ... ].mkv": 419761132}, "BBC - Frozen Planet [720p]": {"Other": {"AhaShare.com.txt ... ": {"NOTES.txt": 68, "Frozen.Planet.S01E01.720p.HDTV.x264.YIFY ... .jpg": 130677, "Frozen.Planet.S01E01.720p.HDTV.x264.YIFY ... .mp4": 367836265, "Frozen.Planet.S01E02.720p.HDTV.x264.YIFY ...
创建时间: 2018-11-10 00:03:23 大小:20.79 GB 文件数量:43 热度:63 最近下载:2025-08-04 14:12:07
    {"Planet.of.the.Apes.Last.Frontier.iso": 19738296320}
创建时间: 2018-11-10 00:09:44 大小:18.38 GB 文件数量:1 热度:6 最近下载:2023-04-13 04:30:02
    ... Generator.mp3": 16956475, "06. Blue Planet Corporation - Psychonaut.mp3": 24393015, "05 ... . Blue Planet Corporation - Juno Satellite.mp3": 22012747 ... Telekinetic.mp3": 18984637, "10. Blue Planet Corporation - Cyclothymic.mp3": 25546597, "07 ...
创建时间: 2018-11-10 00:24:01 大小:368.91 MB 文件数量:31 热度:8 最近下载:2024-07-22 13:38:01
    {"codex.nfo": 5901, "RARBG.com.txt": 34, "codex-planet.explorers.iso": 9561178112}
创建时间: 2018-11-10 01:18:54 大小:8.9 GB 文件数量:3 热度:13 最近下载:2025-10-03 08:23:02
    {"BDMV": {"JAR": {"00001": {"GeneralImages1.png": 2932807, "GeneralImages2.png": 2979463, "GeneralImages3.png": 1829156, "LoadingImages1.png": 315737, "F1_GermanImages1.png": 1128839, "F1_GermanImages2.png": 531237, "F1_EnglishImages1.png": 1316986, " ...
创建时间: 2018-11-10 01:19:57 大小:41.55 GB 文件数量:904 热度:23 最近下载:2025-10-03 00:02:27
    {"Setup.exe": 5395197, "data1.dat": 1204142620, "records.ini": 78}
创建时间: 2018-11-10 01:25:04 大小:1.13 GB 文件数量:3 热度:9 最近下载:2025-01-21 14:19:02
    ... .mkv": 7987405962, "Frozen.Planet.S01E02.Bluray.1080p.DTS.2Audio ... .mkv": 7867657589, "Frozen.Planet.S01E03.Bluray.1080p.DTS.2Audio ... .mkv": 8422581897, "Frozen.Planet.S01E04.Bluray.1080p.DTS.2Audio ... .mkv": 8073166902, "Frozen.Planet.S01E05.Bluray.1080p.DTS.2Audio ...
创建时间: 2018-11-10 01:36:07 大小:55.29 GB 文件数量:10 热度:19 最近下载:2025-02-14 01:58:02
    {"Sample": {"dawn.of.the.planet.of.the.apes.2014.1080p. ... .txt": 34, "Dawn.of.the.Planet.of.the.Apes.2014.1080p ... .mkv": 10557497676, "dawn.of.the.planet.of.the.apes.2014.1080p ...
创建时间: 2018-11-10 03:14:33 大小:9.84 GB 文件数量:4 热度:8 最近下载:2024-05-15 02:34:01
    ... .jpg": 401540, "Planet x - Universe - front.jpg": 509623, "Planet x - Universe - inlay ... - Universe - book 1.jpg": 735618, "Planet x - Universe - book 2.jpg ... , "Universe.log": 779, "Planet x - Universe.cue": 1188, "Planet x - Universe.flac ...
创建时间: 2018-11-10 03:14:36 大小:430.37 MB 文件数量:11 热度:9 最近下载:2025-03-13 20:11:01
    ... Releases!!!.nfo": 12961}, "Planet Of The Apes 1968 DVDRip ... Extra Audio+ Subtitles for The Planet Of The Apes Collection": {"Subtitles ... + Extra Audio for Planet Of The Apes 1968": {" ... }, "Subtitles+ Extra Audio for Planet Of The Apes 2001": {"Spanish ...
创建时间: 2018-11-10 03:17:52 大小:7.7 GB 文件数量:41 热度:10 最近下载:2025-07-11 05:37:01
    {"alegra-anal720x405.mp4": 1466752753, "Torrent Downloads piratepublic.com.txt": 224}
创建时间: 2018-11-10 03:20:08 大小:1.37 GB 文件数量:2 热度:30 最近下载:2025-07-30 11:33:03
    {"sample.mp4": 7047597, "ARENABG.COM.txt": 1509, "War.For.The.Planet.Of.The.Apes.2017.CAM.READNFO.XViD-26k.avi": 1592685692}
创建时间: 2018-11-10 03:23:20 大小:1.49 GB 文件数量:3 热度:5 最近下载:2023-04-13 05:40:03
    ... , "[DeadFish] Kiss Dum: Engage Planet - 02 [BD][720p][AAC].mp4 ... , "[DeadFish] Kiss Dum: Engage Planet - 03 [BD][720p][AAC].mp4 ... , "[DeadFish] Kiss Dum: Engage Planet - 04 [BD][720p][AAC].mp4 ... 134228195, "[DeadFish] Kiss Dum: Engage Planet - 03.5 - Special [BD][ ...
创建时间: 2018-11-10 03:50:07 大小:6.82 GB 文件数量:28 热度:8 最近下载:2025-10-11 06:49:02
    {"Home Planet": {"popup_1.jpg": 119890, "popup_2.jpg": ... .txt": 332, "Daz3D - ca_sc001b - Home Planet [CA].exe": 46191109}, "Real Clouds ...
创建时间: 2018-11-10 03:56:31 大小:202.93 MB 文件数量:16 热度:7 最近下载:2025-06-04 12:28:02
    {"Lonely Planet - Discover India (2011).epub": 37110776, "Lonely Planet - Discover India (2011).mobi": 29961695}
创建时间: 2018-11-10 04:13:46 大小:63.97 MB 文件数量:2 热度:12 最近下载:2025-02-09 20:30:02